createdAt,value
2023-05-01T00:01:12.235Z,7.75
2023-05-01T00:03:39.779Z,7.74
2023-05-01T00:06:08.090Z,7.71
2023-05-01T00:08:35.365Z,7.68
2023-05-01T00:11:04.097Z,7.69
2023-05-01T00:13:32.128Z,7.68
2023-05-01T00:15:59.543Z,7.68
2023-05-01T00:18:27.189Z,7.66
2023-05-01T00:20:54.448Z,7.66
2023-05-01T00:23:21.624Z,7.64
2023-05-01T00:25:49.591Z,7.63
2023-05-01T00:28:18.825Z,7.61
2023-05-01T00:30:47.203Z,7.59
2023-05-01T00:33:14.453Z,7.57
2023-05-01T00:35:45.197Z,7.56
2023-05-01T00:38:13.175Z,7.55
2023-05-01T00:40:46.729Z,7.54
2023-05-01T00:43:14.049Z,7.53
2023-05-01T00:45:46.168Z,7.52
2023-05-01T00:48:14.971Z,7.51
2023-05-01T00:50:45.473Z,7.53
2023-05-01T00:53:13.212Z,7.53
2023-05-01T00:55:42.866Z,7.53
2023-05-01T00:58:12.182Z,7.52
2023-05-01T01:00:39.636Z,7.48
2023-05-01T01:03:07.198Z,7.48
2023-05-01T01:05:42.046Z,7.46
2023-05-01T01:08:18.252Z,7.46
2023-05-01T01:10:58.529Z,7.43
2023-05-01T01:13:53.139Z,7.41
2023-05-01T01:16:39.189Z,7.37
2023-05-01T01:19:49.490Z,7.37
2023-05-01T01:22:23.161Z,7.33
2023-05-01T01:25:17.626Z,7.31
2023-05-01T01:28:21.990Z,7.29
2023-05-01T01:31:05.767Z,7.28
2023-05-01T01:33:45.913Z,7.28
2023-05-01T01:36:20.330Z,7.26
2023-05-01T01:39:13.210Z,7.23
2023-05-01T01:41:43.053Z,7.18
2023-05-01T01:44:21.584Z,7.15
2023-05-01T01:46:53.165Z,7.14
2023-05-01T01:49:25.014Z,7.11
2023-05-01T01:51:55.308Z,7.12
2023-05-01T01:54:31.482Z,7.10
2023-05-01T01:57:02.649Z,7.09
2023-05-01T01:59:35.220Z,7.05
2023-05-01T02:02:05.557Z,7.05
2023-05-01T02:04:34.209Z,7.02
2023-05-01T02:07:01.682Z,7.00
2023-05-01T02:09:31.133Z,6.98
2023-05-01T02:12:01.016Z,6.95
2023-05-01T02:14:29.154Z,6.94
2023-05-01T02:16:58.939Z,6.92
2023-05-01T02:19:26.869Z,6.91
2023-05-01T02:21:58.660Z,6.89
2023-05-01T02:24:28.805Z,6.87
2023-05-01T02:27:10.254Z,6.85
2023-05-01T02:29:37.856Z,6.83
2023-05-01T02:32:05.455Z,6.82
2023-05-01T02:34:36.052Z,6.80
2023-05-01T02:37:07.036Z,6.78
2023-05-01T02:39:35.617Z,6.76
2023-05-01T02:42:04.664Z,6.73
2023-05-01T02:44:39.922Z,6.71
2023-05-01T02:47:11.310Z,6.69
2023-05-01T02:49:40.963Z,6.68
2023-05-01T02:52:09.328Z,6.66
2023-05-01T02:54:37.038Z,6.62
2023-05-01T02:57:05.422Z,6.58
2023-05-01T02:59:33.609Z,6.55
2023-05-01T03:02:01.040Z,6.54
2023-05-01T03:04:28.502Z,6.50
2023-05-01T03:06:56.586Z,6.46
2023-05-01T03:09:23.910Z,6.43
2023-05-01T03:11:51.345Z,6.40
2023-05-01T03:14:18.846Z,6.37
2023-05-01T03:16:46.388Z,6.33
2023-05-01T03:19:13.673Z,6.31
2023-05-01T03:21:41.211Z,6.27
2023-05-01T03:24:08.555Z,6.23
2023-05-01T03:26:36.013Z,6.21
2023-05-01T03:29:03.530Z,6.18
2023-05-01T03:31:31.550Z,6.16
2023-05-01T03:34:00.122Z,6.15
2023-05-01T03:36:28.549Z,6.14
2023-05-01T03:38:56.560Z,6.12
2023-05-01T03:41:42.456Z,6.11
2023-05-01T03:44:20.690Z,6.09
2023-05-01T03:46:48.266Z,6.10
2023-05-01T03:49:24.085Z,6.09
2023-05-01T03:51:52.231Z,6.10
2023-05-01T03:54:19.499Z,6.09
2023-05-01T03:56:59.392Z,6.12
2023-05-01T03:59:27.274Z,6.13
2023-05-01T04:01:54.567Z,6.14
2023-05-01T04:04:22.035Z,6.12
2023-05-01T04:06:56.224Z,6.13
2023-05-01T04:09:23.482Z,6.13
2023-05-01T04:11:51.035Z,6.14
2023-05-01T04:14:18.386Z,6.14
2023-05-01T04:16:45.903Z,6.15
2023-05-01T04:19:14.376Z,6.15
2023-05-01T04:21:44.314Z,6.18
2023-05-01T04:24:14.708Z,6.21
2023-05-01T04:26:42.964Z,6.20
2023-05-01T04:29:10.927Z,6.21
2023-05-01T04:31:38.354Z,6.24
2023-05-01T04:34:05.683Z,6.29
2023-05-01T04:36:33.271Z,6.31
2023-05-01T04:39:00.848Z,6.36
2023-05-01T04:41:29.422Z,6.41
2023-05-01T04:43:56.699Z,6.48
2023-05-01T04:46:24.044Z,6.60
2023-05-01T04:48:51.472Z,6.97
2023-05-01T04:51:19.881Z,7.40
2023-05-01T04:53:47.574Z,7.71
2023-05-01T04:56:25.263Z,7.86
2023-05-01T04:58:56.698Z,7.96
2023-05-01T05:01:26.521Z,7.98
2023-05-01T05:03:54.599Z,7.94
2023-05-01T05:06:22.781Z,8.03
2023-05-01T05:08:53.699Z,8.42
2023-05-01T05:11:26.857Z,9.16
2023-05-01T05:14:00.701Z,10.00
2023-05-01T05:16:28.127Z,10.53
2023-05-01T05:18:56.956Z,10.78
2023-05-01T05:21:26.147Z,10.86
2023-05-01T05:23:56.275Z,10.85
2023-05-01T05:26:26.996Z,10.79
2023-05-01T05:28:57.400Z,10.70
2023-05-01T05:31:24.916Z,10.73
2023-05-01T05:33:52.426Z,10.76
2023-05-01T05:36:19.850Z,10.80
2023-05-01T05:38:47.330Z,10.80
2023-05-01T05:41:18.431Z,10.80
2023-05-01T05:43:47.180Z,10.79
2023-05-01T05:46:14.477Z,10.78
2023-05-01T05:48:42.919Z,10.80
2023-05-01T05:51:10.785Z,10.95
2023-05-01T05:53:38.260Z,11.14
2023-05-01T05:56:06.128Z,11.29
2023-05-01T05:58:33.868Z,11.45
2023-05-01T06:01:01.155Z,11.52
2023-05-01T06:03:28.707Z,11.52
2023-05-01T06:06:01.046Z,11.46
2023-05-01T06:08:28.681Z,11.41
2023-05-01T06:10:56.696Z,11.35
2023-05-01T06:13:23.973Z,11.30
2023-05-01T06:15:51.611Z,11.29
2023-05-01T06:18:19.663Z,11.30
2023-05-01T06:20:47.884Z,11.30
2023-05-01T06:23:16.570Z,11.34
2023-05-01T06:26:08.034Z,11.40
2023-05-01T06:28:35.435Z,11.48
2023-05-01T06:31:03.486Z,11.57
2023-05-01T06:33:34.789Z,11.67
2023-05-01T06:36:13.583Z,11.81
2023-05-01T06:38:42.285Z,11.90
2023-05-01T06:41:10.558Z,12.00
2023-05-01T06:43:38.100Z,12.04
2023-05-01T06:46:05.395Z,12.08
2023-05-01T06:48:32.676Z,12.14
2023-05-01T06:51:00.085Z,12.18
2023-05-01T06:53:27.358Z,12.21
2023-05-01T06:55:54.719Z,12.25
2023-05-01T06:58:23.819Z,12.24
2023-05-01T07:00:54.012Z,12.17
2023-05-01T07:03:21.799Z,12.18
2023-05-01T07:05:49.085Z,12.22
2023-05-01T07:08:16.371Z,12.26
2023-05-01T07:10:43.667Z,12.29
2023-05-01T07:13:10.883Z,12.34
2023-05-01T07:15:38.350Z,12.41
2023-05-01T07:18:06.193Z,12.48
2023-05-01T07:20:34.767Z,12.60
2023-05-01T07:23:02.241Z,12.69
2023-05-01T07:25:30.039Z,12.71
2023-05-01T07:27:57.422Z,12.75
2023-05-01T07:30:24.894Z,12.81
2023-05-01T07:32:52.872Z,12.90
2023-05-01T07:35:20.446Z,12.99
2023-05-01T07:37:50.595Z,13.09
2023-05-01T07:40:18.541Z,13.20
2023-05-01T07:42:45.778Z,13.33
2023-05-01T07:45:13.944Z,13.42
2023-05-01T07:47:41.876Z,13.52
2023-05-01T07:50:12.836Z,13.60
2023-05-01T07:52:40.070Z,13.71
2023-05-01T07:55:08.875Z,13.81
2023-05-01T07:57:36.255Z,13.91
2023-05-01T08:00:04.288Z,13.99
2023-05-01T08:02:43.646Z,14.04
2023-05-01T08:05:10.995Z,14.02
2023-05-01T08:07:38.114Z,14.08
2023-05-01T08:10:06.048Z,14.17
2023-05-01T08:12:33.361Z,14.27
2023-05-01T08:15:01.412Z,14.32
2023-05-01T08:17:28.634Z,14.38
2023-05-01T08:19:56.828Z,14.51
2023-05-01T08:22:24.530Z,14.59
2023-05-01T08:24:52.005Z,14.67
2023-05-01T08:27:19.400Z,14.72
2023-05-01T08:29:47.092Z,14.75
2023-05-01T08:32:15.547Z,14.77
2023-05-01T08:34:42.757Z,14.83
2023-05-01T08:37:10.071Z,14.89
2023-05-01T08:39:37.619Z,14.98
2023-05-01T08:42:05.285Z,15.05
2023-05-01T08:44:33.201Z,15.04
2023-05-01T08:47:14.580Z,15.05
2023-05-01T08:49:43.132Z,15.07
2023-05-01T08:52:14.689Z,15.15
2023-05-01T08:54:47.209Z,15.21
2023-05-01T08:57:15.929Z,15.26
2023-05-01T08:59:44.779Z,15.33
2023-05-01T09:02:12.398Z,15.39
2023-05-01T09:04:41.842Z,15.48
2023-05-01T09:07:10.498Z,15.56
2023-05-01T09:09:37.786Z,15.64
2023-05-01T09:12:26.358Z,15.65
2023-05-01T09:14:55.438Z,15.71
2023-05-01T09:17:24.161Z,15.75
2023-05-01T09:19:52.231Z,15.78
2023-05-01T09:22:20.378Z,15.86
2023-05-01T09:24:47.738Z,15.90
2023-05-01T09:27:16.174Z,15.90
2023-05-01T09:29:48.093Z,16.01
2023-05-01T09:32:21.602Z,16.13
2023-05-01T09:34:50.672Z,16.20
2023-05-01T09:37:34.367Z,16.26
2023-05-01T09:40:20.072Z,16.28
2023-05-01T09:42:52.297Z,16.38
2023-05-01T09:45:20.478Z,16.41
2023-05-01T09:47:48.255Z,16.48
2023-05-01T09:50:35.562Z,16.62
2023-05-01T09:53:05.123Z,16.76
2023-05-01T09:55:33.589Z,16.79
2023-05-01T09:58:01.158Z,16.79
2023-05-01T10:00:28.474Z,16.81
2023-05-01T10:02:56.225Z,16.87
2023-05-01T10:05:24.817Z,16.85
2023-05-01T10:08:01.130Z,16.88
2023-05-01T10:10:28.680Z,16.91
2023-05-01T10:12:56.116Z,16.94
2023-05-01T10:15:26.760Z,16.96
2023-05-01T10:17:54.857Z,16.88
2023-05-01T10:20:22.414Z,16.75
2023-05-01T10:22:50.005Z,16.74
2023-05-01T10:25:17.894Z,16.75
2023-05-01T10:27:45.494Z,16.69
2023-05-01T10:30:13.001Z,16.66
2023-05-01T10:32:42.338Z,16.69
2023-05-01T10:35:19.860Z,16.75
2023-05-01T10:38:06.499Z,16.70
2023-05-01T10:40:40.233Z,16.70
2023-05-01T10:43:20.424Z,16.71
2023-05-01T10:45:49.238Z,16.77
2023-05-01T10:48:38.952Z,16.75
2023-05-01T10:51:25.630Z,16.76
2023-05-01T10:54:13.571Z,16.87
2023-05-01T10:56:43.226Z,16.98
2023-05-01T10:59:11.644Z,17.07
2023-05-01T11:01:40.278Z,17.18
2023-05-01T11:04:29.881Z,17.27
2023-05-01T11:07:08.005Z,17.38
2023-05-01T11:09:39.400Z,17.40
2023-05-01T11:12:08.072Z,17.42
2023-05-01T11:15:11.254Z,17.50
2023-05-01T11:17:44.309Z,17.56
2023-05-01T11:20:24.627Z,17.60
2023-05-01T11:22:53.733Z,17.62
2023-05-01T11:25:23.089Z,17.65
2023-05-01T11:28:09.705Z,17.65
2023-05-01T11:30:40.406Z,17.64
2023-05-01T11:33:10.396Z,17.67
2023-05-01T11:35:38.791Z,17.71
2023-05-01T11:38:19.025Z,17.73
2023-05-01T11:40:57.517Z,17.73
2023-05-01T11:43:24.835Z,17.67
2023-05-01T11:46:01.930Z,17.63
2023-05-01T11:48:30.258Z,17.62
2023-05-01T11:50:57.592Z,17.57
2023-05-01T11:53:24.981Z,17.56
2023-05-01T11:55:52.381Z,17.54
2023-05-01T11:58:32.221Z,17.65
2023-05-01T12:00:59.682Z,17.78
2023-05-01T12:03:27.380Z,17.88
2023-05-01T12:05:54.935Z,17.92
2023-05-01T12:08:23.401Z,17.94
2023-05-01T12:10:53.710Z,17.91
2023-05-01T12:13:21.546Z,17.89
2023-05-01T12:15:51.859Z,17.89
2023-05-01T12:18:21.630Z,17.95
2023-05-01T12:20:54.373Z,18.05
2023-05-01T12:23:37.513Z,18.02
2023-05-01T12:26:18.371Z,17.99
2023-05-01T12:29:03.471Z,18.00
2023-05-01T12:31:31.808Z,18.02
2023-05-01T12:34:01.035Z,18.00
2023-05-01T12:36:31.769Z,18.02
2023-05-01T12:39:04.902Z,18.08
2023-05-01T12:42:11.337Z,18.11
2023-05-01T12:44:39.175Z,18.15
2023-05-01T12:47:08.423Z,18.14
2023-05-01T12:49:37.294Z,18.08
2023-05-01T12:52:07.603Z,18.01
2023-05-01T12:54:38.093Z,18.01
2023-05-01T12:57:14.731Z,17.99
2023-05-01T12:59:46.464Z,17.98
2023-05-01T13:02:16.192Z,17.92
2023-05-01T13:04:44.711Z,17.99
2023-05-01T13:07:12.795Z,18.02
2023-05-01T13:09:50.775Z,18.06
2023-05-01T13:12:18.220Z,18.07
2023-05-01T13:14:46.545Z,18.15
2023-05-01T13:17:23.036Z,18.19
2023-05-01T13:20:01.687Z,18.23
2023-05-01T13:22:38.749Z,18.28
2023-05-01T13:25:16.110Z,18.28
2023-05-01T13:27:49.728Z,18.24
2023-05-01T13:30:22.094Z,18.22
2023-05-01T13:32:49.857Z,18.13
2023-05-01T13:35:25.296Z,18.03
2023-05-01T13:37:53.687Z,17.94
2023-05-01T13:40:21.469Z,17.87
2023-05-01T13:42:52.737Z,17.85
2023-05-01T13:45:21.342Z,17.69
2023-05-01T13:47:50.744Z,17.65
2023-05-01T13:50:18.413Z,17.57
2023-05-01T13:52:45.990Z,17.53
2023-05-01T13:55:14.500Z,17.56
2023-05-01T13:57:43.336Z,17.57
2023-05-01T14:00:19.268Z,17.59
2023-05-01T14:02:49.196Z,17.57
2023-05-01T14:05:23.253Z,17.57
2023-05-01T14:07:55.502Z,17.53
2023-05-01T14:10:26.430Z,17.56
2023-05-01T14:12:58.852Z,17.62
2023-05-01T14:15:26.900Z,17.67
2023-05-01T14:17:54.362Z,17.63
2023-05-01T14:20:25.303Z,17.63
2023-05-01T14:22:53.577Z,17.59
2023-05-01T14:25:31.456Z,17.56
2023-05-01T14:28:01.216Z,17.53
2023-05-01T14:30:30.032Z,17.50
2023-05-01T14:32:57.361Z,17.41
2023-05-01T14:35:25.062Z,17.36
2023-05-01T14:37:52.382Z,17.31
2023-05-01T14:40:27.761Z,17.28
2023-05-01T14:42:57.701Z,17.19
2023-05-01T14:45:24.930Z,17.14
2023-05-01T14:47:52.139Z,17.10
2023-05-01T14:50:21.550Z,17.05
2023-05-01T14:53:00.464Z,17.01
2023-05-01T14:55:34.734Z,17.01
2023-05-01T14:58:02.076Z,16.99
2023-05-01T15:00:29.601Z,16.94
2023-05-01T15:02:58.893Z,16.87
2023-05-01T15:05:28.318Z,16.85
2023-05-01T15:08:00.804Z,16.83
2023-05-01T15:10:29.111Z,16.80
2023-05-01T15:12:56.599Z,16.77
2023-05-01T15:15:24.048Z,16.73
2023-05-01T15:17:51.533Z,16.70
2023-05-01T15:20:21.975Z,16.71
2023-05-01T15:22:49.200Z,16.69
2023-05-01T15:25:16.582Z,16.66
2023-05-01T15:27:45.734Z,16.67
2023-05-01T15:30:15.251Z,16.67
2023-05-01T15:32:43.140Z,16.63
2023-05-01T15:35:10.781Z,16.56
2023-05-01T15:37:38.419Z,16.53
2023-05-01T15:40:06.404Z,16.50
2023-05-01T15:42:33.777Z,16.48
2023-05-01T15:45:03.452Z,16.39
2023-05-01T15:47:31.057Z,16.34
2023-05-01T15:49:59.940Z,16.33
2023-05-01T15:52:27.483Z,16.33
2023-05-01T15:54:56.323Z,16.34
2023-05-01T15:57:23.948Z,16.33
2023-05-01T15:59:53.875Z,16.34
2023-05-01T16:02:21.803Z,16.26
2023-05-01T16:04:49.577Z,16.23
2023-05-01T16:07:16.807Z,16.23
2023-05-01T16:09:44.188Z,16.23
2023-05-01T16:12:11.977Z,16.20
2023-05-01T16:14:42.459Z,16.18
2023-05-01T16:17:09.901Z,16.12
2023-05-01T16:19:38.469Z,16.09
2023-05-01T16:22:07.013Z,16.03
2023-05-01T16:24:35.126Z,15.93
2023-05-01T16:27:02.717Z,15.88
2023-05-01T16:29:32.925Z,15.81
2023-05-01T16:32:00.678Z,15.74
2023-05-01T16:34:28.135Z,15.69
2023-05-01T16:36:56.585Z,15.59
2023-05-01T16:39:24.270Z,15.48
2023-05-01T16:41:53.778Z,15.40
2023-05-01T16:44:22.454Z,15.30
2023-05-01T16:46:49.869Z,15.26
2023-05-01T16:49:17.482Z,15.17
2023-05-01T16:51:44.814Z,15.11
2023-05-01T16:54:12.140Z,15.06
2023-05-01T16:56:39.767Z,15.01
2023-05-01T16:59:07.029Z,14.97
2023-05-01T17:01:34.725Z,14.92
2023-05-01T17:04:02.668Z,14.88
2023-05-01T17:06:29.979Z,14.85
2023-05-01T17:08:57.253Z,14.84
2023-05-01T17:11:24.687Z,14.81
2023-05-01T17:13:52.623Z,14.79
2023-05-01T17:16:20.186Z,14.78
2023-05-01T17:18:47.526Z,14.77
2023-05-01T17:21:14.735Z,14.74
2023-05-01T17:23:41.969Z,14.70
2023-05-01T17:26:09.249Z,14.67
2023-05-01T17:28:36.894Z,14.59
2023-05-01T17:31:04.190Z,14.54
2023-05-01T17:33:31.461Z,14.51
2023-05-01T17:36:00.767Z,14.48
2023-05-01T17:38:28.117Z,14.43
2023-05-01T17:40:55.376Z,14.40
2023-05-01T17:43:22.608Z,14.35
2023-05-01T17:45:50.241Z,14.28
2023-05-01T17:48:19.736Z,14.20
2023-05-01T17:50:47.853Z,14.13
2023-05-01T17:53:15.578Z,14.04
2023-05-01T17:55:42.883Z,13.99
2023-05-01T17:58:10.177Z,13.92
2023-05-01T18:00:37.572Z,13.85
2023-05-01T18:03:04.965Z,13.76
2023-05-01T18:05:32.293Z,13.67
2023-05-01T18:07:59.671Z,13.59
2023-05-01T18:10:31.188Z,13.51
2023-05-01T18:12:58.739Z,13.42
2023-05-01T18:15:26.375Z,13.35
2023-05-01T18:17:54.066Z,13.29
2023-05-01T18:20:21.533Z,13.25
2023-05-01T18:22:48.782Z,13.19
2023-05-01T18:25:17.174Z,13.14
2023-05-01T18:27:45.614Z,13.10
2023-05-01T18:30:13.021Z,13.03
2023-05-01T18:32:48.318Z,12.98
2023-05-01T18:35:17.764Z,12.87
2023-05-01T18:37:45.097Z,12.79
2023-05-01T18:40:12.837Z,12.68
2023-05-01T18:42:41.863Z,12.62
2023-05-01T18:45:12.429Z,12.58
2023-05-01T18:47:39.733Z,12.56
2023-05-01T18:50:07.724Z,12.54
2023-05-01T18:52:37.097Z,12.54
2023-05-01T18:55:05.167Z,12.53
2023-05-01T18:57:32.624Z,12.51
2023-05-01T19:00:01.274Z,12.50
2023-05-01T19:02:28.952Z,12.45
2023-05-01T19:04:57.976Z,12.43
2023-05-01T19:07:26.748Z,12.40
2023-05-01T19:09:54.152Z,12.38
2023-05-01T19:12:21.552Z,12.33
2023-05-01T19:14:49.076Z,12.27
2023-05-01T19:17:16.671Z,12.18
2023-05-01T19:19:44.362Z,12.11
2023-05-01T19:22:11.654Z,12.01
2023-05-01T19:24:39.226Z,11.95
2023-05-01T19:27:06.472Z,11.90
2023-05-01T19:29:34.131Z,11.89
2023-05-01T19:32:01.571Z,11.84
2023-05-01T19:34:29.155Z,11.80
2023-05-01T19:37:00.353Z,11.76
2023-05-01T19:39:29.538Z,11.73
2023-05-01T19:41:56.988Z,11.69
2023-05-01T19:44:24.413Z,11.65
2023-05-01T19:46:52.069Z,11.63
2023-05-01T19:49:19.505Z,11.60
2023-05-01T19:51:46.760Z,11.54
2023-05-01T19:54:14.100Z,11.48
2023-05-01T19:56:41.713Z,11.42
2023-05-01T19:59:09.134Z,11.36
2023-05-01T20:01:38.843Z,11.27
2023-05-01T20:04:06.459Z,11.19
2023-05-01T20:06:33.819Z,11.17
2023-05-01T20:09:01.249Z,11.15
2023-05-01T20:11:31.327Z,11.14
2023-05-01T20:13:58.897Z,11.12
2023-05-01T20:16:27.784Z,11.07
2023-05-01T20:18:55.503Z,11.04
2023-05-01T20:21:22.737Z,11.03
2023-05-01T20:23:50.937Z,11.02
2023-05-01T20:26:19.634Z,11.03
2023-05-01T20:28:48.386Z,11.02
2023-05-01T20:31:15.875Z,11.02
2023-05-01T20:33:43.392Z,11.03
2023-05-01T20:36:10.807Z,11.04
2023-05-01T20:38:43.117Z,11.05
2023-05-01T20:41:10.595Z,11.03
2023-05-01T20:43:38.676Z,11.03
2023-05-01T20:46:06.054Z,11.03
2023-05-01T20:48:33.296Z,11.05
2023-05-01T20:51:01.736Z,11.08
2023-05-01T20:53:29.058Z,11.08
2023-05-01T20:55:56.261Z,11.09
2023-05-01T20:58:23.554Z,11.11
2023-05-01T21:00:54.527Z,11.13
2023-05-01T21:03:21.918Z,11.12
2023-05-01T21:05:49.431Z,11.11
2023-05-01T21:08:18.095Z,11.05
2023-05-01T21:10:45.394Z,11.03
2023-05-01T21:13:13.236Z,11.01
2023-05-01T21:15:41.416Z,11.00
2023-05-01T21:18:12.291Z,11.00
2023-05-01T21:20:40.890Z,10.99
2023-05-01T21:23:08.256Z,10.97
2023-05-01T21:25:35.745Z,10.95
2023-05-01T21:28:03.603Z,10.88
2023-05-01T21:30:33.604Z,10.80
2023-05-01T21:33:21.439Z,10.79
2023-05-01T21:35:48.851Z,10.78
2023-05-01T21:38:16.504Z,10.75
2023-05-01T21:40:46.137Z,10.76
2023-05-01T21:43:13.766Z,10.72
2023-05-01T21:45:44.607Z,10.68
2023-05-01T21:48:14.138Z,10.68
2023-05-01T21:50:41.475Z,10.68
2023-05-01T21:53:11.790Z,10.65
2023-05-01T21:55:39.135Z,10.65
2023-05-01T21:58:06.484Z,10.64
2023-05-01T22:00:33.793Z,10.64
2023-05-01T22:03:08.842Z,10.59
2023-05-01T22:05:40.836Z,10.57
2023-05-01T22:08:08.074Z,10.53
2023-05-01T22:10:36.361Z,10.48
2023-05-01T22:13:06.273Z,10.45
2023-05-01T22:15:33.757Z,10.39
2023-05-01T22:18:01.158Z,10.38
2023-05-01T22:20:28.523Z,10.36
2023-05-01T22:22:56.441Z,10.37
2023-05-01T22:25:23.652Z,10.36
2023-05-01T22:27:50.983Z,10.38
2023-05-01T22:30:18.295Z,10.37
2023-05-01T22:32:45.765Z,10.41
2023-05-01T22:35:13.088Z,10.42
2023-05-01T22:37:40.281Z,10.43
2023-05-01T22:40:07.987Z,10.44
2023-05-01T22:42:36.126Z,10.46
2023-05-01T22:45:03.574Z,10.46
2023-05-01T22:47:30.942Z,10.46
2023-05-01T22:49:58.457Z,10.48
2023-05-01T22:52:25.851Z,10.47
2023-05-01T22:54:53.118Z,10.43
2023-05-01T22:57:20.272Z,10.44
2023-05-01T22:59:48.309Z,10.45
2023-05-01T23:02:17.469Z,10.46
2023-05-01T23:04:45.659Z,10.44
2023-05-01T23:07:13.555Z,10.43
2023-05-01T23:09:41.664Z,10.44
2023-05-01T23:12:16.705Z,10.43
2023-05-01T23:14:46.146Z,10.39
2023-05-01T23:17:14.527Z,10.37
2023-05-01T23:19:43.489Z,10.34
2023-05-01T23:22:13.068Z,10.31
2023-05-01T23:24:50.911Z,10.26
2023-05-01T23:27:19.727Z,10.21
2023-05-01T23:29:58.308Z,10.15
2023-05-01T23:32:29.546Z,10.12
2023-05-01T23:35:12.555Z,10.07
2023-05-01T23:37:39.779Z,9.99
2023-05-01T23:40:08.504Z,9.90
2023-05-01T23:42:37.721Z,9.83
2023-05-01T23:45:08.295Z,9.76
2023-05-01T23:47:35.809Z,9.70
2023-05-01T23:50:03.600Z,9.66
2023-05-01T23:52:31.044Z,9.62
2023-05-01T23:54:58.176Z,9.60
2023-05-01T23:57:25.822Z,9.60
2023-05-01T23:59:53.143Z,9.59
